aviador You're here:

PAIK Decoded Metar

in _UNIDENTIFIED
Report Time2017-03-28 06:01:00
UTC Time2017-03-28 06:12:31
Flight Rules vfr VFR
Wind210° at 03 kt
W.Decomp.*RWY 24: 2.0 kt HW 2.2 kt LCW
W.Rank210° ranks 5
Current wind is below 210° avg. (5.7)
Visibility9999 m
Phenomena:N/A
Clouds:N/A
Expected CloudBase > 2,000 ft AGL from Temp-Dew spread
CeilingNone
Temp-18°C (ISA -33)
Dew Point-23°C (65% RH)
AAT-22.8°C
QNH1009 hPa
Density Alt-3,842 ft
Elevation167 ft
Report Wrong Elevation
Raw Report
PAIK 280601Z AUTO 21003KT 10SM CLR M18/M23 A2981 RMK AO2 SLP143
T11781228 11072 21178 56018 FZRANO=

Extra information for PAIK:More info

Metar Taf Metar & Taf Last 4 Metars F.Rules Stats Wind Profile Meteogram Temp Stats Metar ALERT Operation Metar Decoded Social comments